METAR Data
IDs: Format: Raw Decoded Include TAF

Data at: 2123 UTC 18 Apr 2021

LIRK 182055Z AUTO 13007KT //// M02/M04 Q1012